sensor_id;sensor_type;location;lat;lon;timestamp;pressure;altitude;pressure_sealevel;temperature;humidity
57048;BME280;42934;54.294;18.598;2023-03-14T00:01:57;98397.31;;;9.16;92.95
57048;BME280;42934;54.294;18.598;2023-03-14T00:04:27;98402.22;;;9.20;92.70
57048;BME280;42934;54.294;18.598;2023-03-14T00:06:56;98409.81;;;9.25;92.12
57048;BME280;42934;54.294;18.598;2023-03-14T00:09:25;98411.66;;;9.23;92.01
57048;BME280;42934;54.294;18.598;2023-03-14T00:11:57;98424.03;;;9.21;92.07
57048;BME280;42934;54.294;18.598;2023-03-14T00:14:27;98428.16;;;9.10;92.34
57048;BME280;42934;54.294;18.598;2023-03-14T00:16:57;98431.06;;;9.06;92.58
57048;BME280;42934;54.294;18.598;2023-03-14T00:19:27;98425.06;;;9.18;92.47
57048;BME280;42934;54.294;18.598;2023-03-14T00:21:56;98439.94;;;9.18;92.06
57048;BME280;42934;54.294;18.598;2023-03-14T00:24:25;98430.13;;;9.21;92.06
57048;BME280;42934;54.294;18.598;2023-03-14T00:26:54;98419.91;;;9.17;91.68
57048;BME280;42934;54.294;18.598;2023-03-14T00:29:23;98418.25;;;9.01;92.49
57048;BME280;42934;54.294;18.598;2023-03-14T00:31:52;98404.22;;;9.02;92.41
57048;BME280;42934;54.294;18.598;2023-03-14T00:34:23;98376.78;;;8.81;92.66
57048;BME280;42934;54.294;18.598;2023-03-14T00:36:53;98407.59;;;9.04;92.68
57048;BME280;42934;54.294;18.598;2023-03-14T00:39:23;98403.75;;;9.10;92.61
57048;BME280;42934;54.294;18.598;2023-03-14T00:41:52;98380.44;;;9.20;92.29
57048;BME280;42934;54.294;18.598;2023-03-14T00:44:22;98382.56;;;9.00;92.44
57048;BME280;42934;54.294;18.598;2023-03-14T00:46:52;98380.94;;;9.12;92.38
57048;BME280;42934;54.294;18.598;2023-03-14T00:49:23;98401.28;;;8.94;92.72
57048;BME280;42934;54.294;18.598;2023-03-14T00:51:52;98392.16;;;9.00;92.96
57048;BME280;42934;54.294;18.598;2023-03-14T00:54:22;98398.78;;;9.05;92.35
57048;BME280;42934;54.294;18.598;2023-03-14T00:56:51;98414.69;;;9.02;92.90
57048;BME280;42934;54.294;18.598;2023-03-14T00:59:20;98407.13;;;9.12;92.36
57048;BME280;42934;54.294;18.598;2023-03-14T01:01:49;98399.81;;;9.03;92.31
57048;BME280;42934;54.294;18.598;2023-03-14T01:04:19;98400.75;;;9.16;92.20
57048;BME280;42934;54.294;18.598;2023-03-14T01:06:50;98403.66;;;9.12;92.02
57048;BME280;42934;54.294;18.598;2023-03-14T01:09:19;98405.34;;;9.13;91.90
57048;BME280;42934;54.294;18.598;2023-03-14T01:11:48;98384.47;;;9.11;91.93
57048;BME280;42934;54.294;18.598;2023-03-14T01:14:18;98379.06;;;9.00;92.14
57048;BME280;42934;54.294;18.598;2023-03-14T01:16:47;98371.16;;;9.01;92.41
57048;BME280;42934;54.294;18.598;2023-03-14T01:19:16;98372.91;;;9.15;91.78
57048;BME280;42934;54.294;18.598;2023-03-14T01:21:45;98369.34;;;9.16;91.62
57048;BME280;42934;54.294;18.598;2023-03-14T01:24:16;98389.00;;;9.09;91.73
57048;BME280;42934;54.294;18.598;2023-03-14T01:26:45;98376.75;;;9.09;91.68
57048;BME280;42934;54.294;18.598;2023-03-14T01:29:14;98365.88;;;9.16;91.38
57048;BME280;42934;54.294;18.598;2023-03-14T01:31:43;98360.84;;;9.13;91.46
57048;BME280;42934;54.294;18.598;2023-03-14T01:34:12;98358.06;;;9.28;91.39
57048;BME280;42934;54.294;18.598;2023-03-14T01:36:42;98366.03;;;9.27;90.68
57048;BME280;42934;54.294;18.598;2023-03-14T01:39:11;98360.25;;;9.22;91.23
57048;BME280;42934;54.294;18.598;2023-03-14T01:41:42;98361.47;;;9.16;91.19
57048;BME280;42934;54.294;18.598;2023-03-14T01:44:12;98361.09;;;9.22;91.06
57048;BME280;42934;54.294;18.598;2023-03-14T01:46:42;98350.06;;;9.17;91.07
57048;BME280;42934;54.294;18.598;2023-03-14T01:49:20;98344.44;;;9.23;90.84
57048;BME280;42934;54.294;18.598;2023-03-14T01:52:02;98358.66;;;9.19;91.04
57048;BME280;42934;54.294;18.598;2023-03-14T01:54:35;98344.19;;;9.14;91.12
57048;BME280;42934;54.294;18.598;2023-03-14T01:57:10;98340.44;;;9.18;91.49
57048;BME280;42934;54.294;18.598;2023-03-14T01:59:43;98343.88;;;9.32;90.24
57048;BME280;42934;54.294;18.598;2023-03-14T02:02:14;98339.50;;;9.19;90.63
57048;BME280;42934;54.294;18.598;2023-03-14T02:04:44;98333.22;;;9.21;90.49
57048;BME280;42934;54.294;18.598;2023-03-14T02:07:18;98324.88;;;9.29;90.09
57048;BME280;42934;54.294;18.598;2023-03-14T02:09:59;98318.91;;;9.27;89.75
57048;BME280;42934;54.294;18.598;2023-03-14T02:12:35;98325.84;;;9.14;90.61
57048;BME280;42934;54.294;18.598;2023-03-14T02:15:23;98313.88;;;9.24;90.06
57048;BME280;42934;54.294;18.598;2023-03-14T02:18:14;98318.56;;;9.19;89.79
57048;BME280;42934;54.294;18.598;2023-03-14T02:21:02;98324.22;;;9.25;89.97
57048;BME280;42934;54.294;18.598;2023-03-14T02:23:40;98326.69;;;9.14;90.64
57048;BME280;42934;54.294;18.598;2023-03-14T02:26:17;98338.91;;;9.01;91.32
57048;BME280;42934;54.294;18.598;2023-03-14T02:28:51;98325.09;;;9.12;90.96
57048;BME280;42934;54.294;18.598;2023-03-14T02:31:22;98320.75;;;9.12;90.42
57048;BME280;42934;54.294;18.598;2023-03-14T02:33:52;98311.50;;;9.06;90.40
57048;BME280;42934;54.294;18.598;2023-03-14T02:36:21;98324.28;;;9.11;89.97
57048;BME280;42934;54.294;18.598;2023-03-14T02:38:55;98324.03;;;9.01;91.08
57048;BME280;42934;54.294;18.598;2023-03-14T02:41:29;98316.41;;;9.11;90.79
57048;BME280;42934;54.294;18.598;2023-03-14T02:44:04;98319.63;;;9.29;89.88
57048;BME280;42934;54.294;18.598;2023-03-14T02:46:35;98310.09;;;9.28;89.60
57048;BME280;42934;54.294;18.598;2023-03-14T02:49:06;98302.84;;;9.19;nan
57048;BME280;42934;54.294;18.598;2023-03-14T02:51:37;98298.81;;;9.00;90.35
57048;BME280;42934;54.294;18.598;2023-03-14T02:54:08;98301.34;;;9.15;90.26
57048;BME280;42934;54.294;18.598;2023-03-14T02:56:37;98309.03;;;9.18;89.86
57048;BME280;42934;54.294;18.598;2023-03-14T02:59:09;98319.31;;;9.21;90.00
57048;BME280;42934;54.294;18.598;2023-03-14T03:01:49;98333.31;;;9.20;89.90
57048;BME280;42934;54.294;18.598;2023-03-14T03:04:18;98342.41;;;9.14;89.93
57048;BME280;42934;54.294;18.598;2023-03-14T03:06:48;98362.25;;;9.04;90.44
57048;BME280;42934;54.294;18.598;2023-03-14T03:09:17;98363.38;;;9.00;91.17
57048;BME280;42934;54.294;18.598;2023-03-14T03:11:46;98356.72;;;9.08;90.79
57048;BME280;42934;54.294;18.598;2023-03-14T03:14:21;98353.91;;;9.12;90.48
57048;BME280;42934;54.294;18.598;2023-03-14T03:16:51;98355.47;;;9.28;89.61
57048;BME280;42934;54.294;18.598;2023-03-14T03:19:21;98371.56;;;9.22;89.15
57048;BME280;42934;54.294;18.598;2023-03-14T03:21:50;98384.78;;;9.06;90.41
57048;BME280;42934;54.294;18.598;2023-03-14T03:24:19;98395.84;;;8.97;91.03
57048;BME280;42934;54.294;18.598;2023-03-14T03:26:49;98389.63;;;9.13;90.91
57048;BME280;42934;54.294;18.598;2023-03-14T03:29:18;98388.13;;;9.08;90.59
57048;BME280;42934;54.294;18.598;2023-03-14T03:31:49;98389.84;;;9.09;90.38
57048;BME280;42934;54.294;18.598;2023-03-14T03:34:18;98378.94;;;9.30;89.63
57048;BME280;42934;54.294;18.598;2023-03-14T03:36:51;98390.19;;;9.18;89.81
57048;BME280;42934;54.294;18.598;2023-03-14T03:39:20;98399.53;;;9.22;89.90
57048;BME280;42934;54.294;18.598;2023-03-14T03:41:49;98394.38;;;9.20;90.05
57048;BME280;42934;54.294;18.598;2023-03-14T03:44:19;98404.97;;;9.19;90.25
57048;BME280;42934;54.294;18.598;2023-03-14T03:46:50;98405.03;;;9.17;90.14
57048;BME280;42934;54.294;18.598;2023-03-14T03:49:19;98407.13;;;9.12;90.46
57048;BME280;42934;54.294;18.598;2023-03-14T03:51:49;98401.41;;;9.05;90.69
57048;BME280;42934;54.294;18.598;2023-03-14T03:54:19;98392.50;;;9.22;90.17
57048;BME280;42934;54.294;18.598;2023-03-14T03:56:49;98387.38;;;9.21;90.36
57048;BME280;42934;54.294;18.598;2023-03-14T03:59:18;98388.22;;;9.21;90.23
57048;BME280;42934;54.294;18.598;2023-03-14T04:01:49;98393.16;;;9.12;90.57
57048;BME280;42934;54.294;18.598;2023-03-14T04:04:19;98382.44;;;9.16;90.25
57048;BME280;42934;54.294;18.598;2023-03-14T04:06:48;98362.41;;;9.29;90.24
57048;BME280;42934;54.294;18.598;2023-03-14T04:09:18;98365.28;;;9.25;89.92
57048;BME280;42934;54.294;18.598;2023-03-14T04:12:00;98359.03;;;9.27;89.78
57048;BME280;42934;54.294;18.598;2023-03-14T04:14:49;98356.97;;;9.32;89.23
57048;BME280;42934;54.294;18.598;2023-03-14T04:17:23;98370.78;;;9.35;89.35
57048;BME280;42934;54.294;18.598;2023-03-14T04:19:52;98365.88;;;9.43;89.24
57048;BME280;42934;54.294;18.598;2023-03-14T04:22:26;98353.94;;;9.39;89.05
57048;BME280;42934;54.294;18.598;2023-03-14T04:24:55;98344.69;;;9.33;89.20
57048;BME280;42934;54.294;18.598;2023-03-14T04:27:25;98337.28;;;9.40;89.36
57048;BME280;42934;54.294;18.598;2023-03-14T04:29:55;98331.00;;;9.42;88.81
57048;BME280;42934;54.294;18.598;2023-03-14T04:32:43;98337.28;;;9.40;88.65
57048;BME280;42934;54.294;18.598;2023-03-14T04:35:13;98323.16;;;9.42;88.95
57048;BME280;42934;54.294;18.598;2023-03-14T04:37:42;98323.63;;;9.35;88.89
57048;BME280;42934;54.294;18.598;2023-03-14T04:40:14;98323.53;;;9.36;88.76
57048;BME280;42934;54.294;18.598;2023-03-14T04:42:46;98324.31;;;9.51;88.56
57048;BME280;42934;54.294;18.598;2023-03-14T04:45:15;98321.75;;;9.37;88.55
57048;BME280;42934;54.294;18.598;2023-03-14T04:47:46;98315.78;;;9.35;88.75
57048;BME280;42934;54.294;18.598;2023-03-14T04:50:18;98308.13;;;9.31;89.19
57048;BME280;42934;54.294;18.598;2023-03-14T04:52:49;98305.91;;;9.25;89.67
57048;BME280;42934;54.294;18.598;2023-03-14T04:55:19;98300.47;;;9.28;89.46
57048;BME280;42934;54.294;18.598;2023-03-14T04:57:52;98294.44;;;9.14;89.70
57048;BME280;42934;54.294;18.598;2023-03-14T05:00:22;98284.94;;;9.25;89.65
57048;BME280;42934;54.294;18.598;2023-03-14T05:03:09;98280.19;;;9.45;88.14
57048;BME280;42934;54.294;18.598;2023-03-14T05:05:58;98271.38;;;9.33;88.71
57048;BME280;42934;54.294;18.598;2023-03-14T05:08:54;98255.75;;;9.31;88.83
57048;BME280;42934;54.294;18.598;2023-03-14T05:11:32;98251.88;;;9.37;88.44
57048;BME280;42934;54.294;18.598;2023-03-14T05:14:05;98251.22;;;9.21;88.59
57048;BME280;42934;54.294;18.598;2023-03-14T05:17:06;98241.88;;;9.17;89.49
57048;BME280;42934;54.294;18.598;2023-03-14T05:20:00;98241.66;;;9.07;90.12
57048;BME280;42934;54.294;18.598;2023-03-14T05:22:48;98238.84;;;9.10;89.63
57048;BME280;42934;54.294;18.598;2023-03-14T05:25:37;98234.00;;;9.04;89.66
57048;BME280;42934;54.294;18.598;2023-03-14T05:28:35;98251.03;;;9.24;88.39
57048;BME280;42934;54.294;18.598;2023-03-14T05:31:30;98249.25;;;9.24;87.99
57048;BME280;42934;54.294;18.598;2023-03-14T05:34:25;98245.75;;;9.11;88.95
57048;BME280;42934;54.294;18.598;2023-03-14T05:37:19;98256.94;;;9.00;89.25
57048;BME280;42934;54.294;18.598;2023-03-14T05:40:04;98269.91;;;9.02;89.63
57048;BME280;42934;54.294;18.598;2023-03-14T05:43:02;98265.47;;;8.90;90.23
57048;BME280;42934;54.294;18.598;2023-03-14T05:45:56;98264.03;;;8.98;90.10
57048;BME280;42934;54.294;18.598;2023-03-14T05:48:47;98272.63;;;9.00;90.34
57048;BME280;42934;54.294;18.598;2023-03-14T05:51:33;98278.91;;;8.98;90.04
57048;BME280;42934;54.294;18.598;2023-03-14T05:54:39;98289.16;;;9.01;90.39
57048;BME280;42934;54.294;18.598;2023-03-14T05:57:31;98288.63;;;8.96;90.54
57048;BME280;42934;54.294;18.598;2023-03-14T06:00:22;98267.28;;;9.02;90.62
57048;BME280;42934;54.294;18.598;2023-03-14T06:03:06;98273.09;;;8.93;90.84
57048;BME280;42934;54.294;18.598;2023-03-14T06:05:41;98282.63;;;8.94;90.88
57048;BME280;42934;54.294;18.598;2023-03-14T06:08:10;98276.16;;;8.99;91.07
57048;BME280;42934;54.294;18.598;2023-03-14T06:10:42;98288.22;;;9.02;90.69
57048;BME280;42934;54.294;18.598;2023-03-14T06:13:11;98289.44;;;8.96;91.00
57048;BME280;42934;54.294;18.598;2023-03-14T06:15:42;98282.63;;;8.94;90.89
57048;BME280;42934;54.294;18.598;2023-03-14T06:18:12;98284.78;;;9.01;90.72
57048;BME280;42934;54.294;18.598;2023-03-14T06:20:43;98300.28;;;9.04;90.89
57048;BME280;42934;54.294;18.598;2023-03-14T06:23:20;98300.50;;;8.87;92.03
57048;BME280;42934;54.294;18.598;2023-03-14T06:25:52;98293.22;;;8.92;92.12
57048;BME280;42934;54.294;18.598;2023-03-14T06:28:23;98298.59;;;9.03;91.49
57048;BME280;42934;54.294;18.598;2023-03-14T06:30:58;98293.81;;;9.10;91.41
57048;BME280;42934;54.294;18.598;2023-03-14T06:33:31;98281.34;;;9.14;90.51
57048;BME280;42934;54.294;18.598;2023-03-14T06:36:01;98292.84;;;9.11;90.75
57048;BME280;42934;54.294;18.598;2023-03-14T06:38:31;98295.47;;;9.11;91.36
57048;BME280;42934;54.294;18.598;2023-03-14T06:41:05;98296.88;;;9.17;91.09
57048;BME280;42934;54.294;18.598;2023-03-14T06:43:41;98300.06;;;9.07;91.70
57048;BME280;42934;54.294;18.598;2023-03-14T06:46:12;98295.41;;;9.13;92.09
57048;BME280;42934;54.294;18.598;2023-03-14T06:48:42;98289.75;;;9.19;92.03
57048;BME280;42934;54.294;18.598;2023-03-14T06:51:13;98285.09;;;9.37;90.33
57048;BME280;42934;54.294;18.598;2023-03-14T06:53:42;98297.41;;;9.22;91.50
57048;BME280;42934;54.294;18.598;2023-03-14T06:56:16;98292.13;;;9.36;91.04
57048;BME280;42934;54.294;18.598;2023-03-14T06:58:45;98284.19;;;9.23;91.46
57048;BME280;42934;54.294;18.598;2023-03-14T07:01:22;98290.22;;;9.38;91.16
57048;BME280;42934;54.294;18.598;2023-03-14T07:03:53;98291.59;;;9.44;91.33
57048;BME280;42934;54.294;18.598;2023-03-14T07:06:23;98299.16;;;9.48;91.06
57048;BME280;42934;54.294;18.598;2023-03-14T07:08:53;98270.59;;;9.18;91.82
57048;BME280;42934;54.294;18.598;2023-03-14T07:11:24;98290.81;;;9.29;92.71
57048;BME280;42934;54.294;18.598;2023-03-14T07:13:53;98295.66;;;9.35;92.66
57048;BME280;42934;54.294;18.598;2023-03-14T07:16:23;98297.25;;;9.38;92.26
57048;BME280;42934;54.294;18.598;2023-03-14T07:18:52;98294.63;;;9.38;92.22
57048;BME280;42934;54.294;18.598;2023-03-14T07:21:21;98295.03;;;9.31;93.21
57048;BME280;42934;54.294;18.598;2023-03-14T07:23:50;98293.03;;;9.35;93.65
57048;BME280;42934;54.294;18.598;2023-03-14T07:26:20;98292.06;;;9.50;93.10
57048;BME280;42934;54.294;18.598;2023-03-14T07:28:53;98284.81;;;9.54;92.38
57048;BME280;42934;54.294;18.598;2023-03-14T07:31:23;98280.63;;;9.51;92.72
57048;BME280;42934;54.294;18.598;2023-03-14T07:33:52;98271.81;;;9.52;93.38
57048;BME280;42934;54.294;18.598;2023-03-14T07:36:24;98269.53;;;9.61;93.00
57048;BME280;42934;54.294;18.598;2023-03-14T07:38:53;98267.75;;;9.61;93.37
57048;BME280;42934;54.294;18.598;2023-03-14T07:41:32;98252.97;;;9.60;93.13
57048;BME280;42934;54.294;18.598;2023-03-14T07:44:21;98257.47;;;9.58;94.43
57048;BME280;42934;54.294;18.598;2023-03-14T07:46:51;98261.16;;;9.68;94.72
57048;BME280;42934;54.294;18.598;2023-03-14T07:49:20;98262.41;;;9.75;94.18
57048;BME280;42934;54.294;18.598;2023-03-14T07:51:49;98268.00;;;9.84;93.78
57048;BME280;42934;54.294;18.598;2023-03-14T07:54:18;98254.47;;;9.90;93.08
57048;BME280;42934;54.294;18.598;2023-03-14T07:56:48;98247.13;;;9.95;93.49
57048;BME280;42934;54.294;18.598;2023-03-14T07:59:17;98258.16;;;10.00;93.27
57048;BME280;42934;54.294;18.598;2023-03-14T08:01:49;98249.31;;;10.14;92.64
57048;BME280;42934;54.294;18.598;2023-03-14T08:04:18;98236.84;;;10.05;92.83
57048;BME280;42934;54.294;18.598;2023-03-14T08:06:47;98230.75;;;10.17;92.35
57048;BME280;42934;54.294;18.598;2023-03-14T08:09:16;98238.09;;;10.24;92.00
57048;BME280;42934;54.294;18.598;2023-03-14T08:11:46;98242.31;;;10.27;91.87
57048;BME280;42934;54.294;18.598;2023-03-14T08:14:15;98249.00;;;10.31;91.71
57048;BME280;42934;54.294;18.598;2023-03-14T08:16:44;98237.91;;;10.28;91.89
57048;BME280;42934;54.294;18.598;2023-03-14T08:19:14;98231.19;;;10.36;91.17
57048;BME280;42934;54.294;18.598;2023-03-14T08:21:44;98221.22;;;10.41;91.37
57048;BME280;42934;54.294;18.598;2023-03-14T08:24:13;98223.31;;;10.36;91.52
57048;BME280;42934;54.294;18.598;2023-03-14T08:26:42;98222.13;;;10.40;91.31
57048;BME280;42934;54.294;18.598;2023-03-14T08:29:11;98230.75;;;10.42;91.04
57048;BME280;42934;54.294;18.598;2023-03-14T08:31:41;98224.41;;;10.58;90.57
57048;BME280;42934;54.294;18.598;2023-03-14T08:34:10;98217.03;;;10.63;90.42
57048;BME280;42934;54.294;18.598;2023-03-14T08:36:40;98215.56;;;10.59;90.31
57048;BME280;42934;54.294;18.598;2023-03-14T08:39:10;98222.50;;;10.60;90.00
57048;BME280;42934;54.294;18.598;2023-03-14T08:41:39;98208.13;;;10.53;90.78
57048;BME280;42934;54.294;18.598;2023-03-14T08:44:11;98205.59;;;10.64;89.97
57048;BME280;42934;54.294;18.598;2023-03-14T08:46:40;98187.44;;;10.61;90.34
57048;BME280;42934;54.294;18.598;2023-03-14T08:49:09;98187.72;;;10.69;89.89
57048;BME280;42934;54.294;18.598;2023-03-14T08:51:41;98182.78;;;10.64;89.90
57048;BME280;42934;54.294;18.598;2023-03-14T08:54:10;98178.44;;;10.52;89.52
57048;BME280;42934;54.294;18.598;2023-03-14T08:56:40;98199.72;;;10.60;89.99
57048;BME280;42934;54.294;18.598;2023-03-14T08:59:09;98199.50;;;10.63;89.78
57048;BME280;42934;54.294;18.598;2023-03-14T09:01:39;98206.63;;;10.61;90.12
57048;BME280;42934;54.294;18.598;2023-03-14T09:04:08;98195.91;;;10.64;90.10
57048;BME280;42934;54.294;18.598;2023-03-14T09:06:37;98199.88;;;10.46;90.40
57048;BME280;42934;54.294;18.598;2023-03-14T09:09:08;98192.69;;;10.61;90.34
57048;BME280;42934;54.294;18.598;2023-03-14T09:11:37;98189.16;;;10.73;90.38
57048;BME280;42934;54.294;18.598;2023-03-14T09:14:07;98177.06;;;10.83;90.22
57048;BME280;42934;54.294;18.598;2023-03-14T09:16:36;98194.69;;;10.81;89.99
57048;BME280;42934;54.294;18.598;2023-03-14T09:19:05;98191.19;;;10.94;89.64
57048;BME280;42934;54.294;18.598;2023-03-14T09:21:34;98196.59;;;11.03;88.75
57048;BME280;42934;54.294;18.598;2023-03-14T09:24:05;98210.88;;;10.99;88.65
57048;BME280;42934;54.294;18.598;2023-03-14T09:26:35;98226.66;;;10.99;88.96
57048;BME280;42934;54.294;18.598;2023-03-14T09:29:05;98223.19;;;10.99;89.10
57048;BME280;42934;54.294;18.598;2023-03-14T09:31:35;98224.22;;;11.09;88.37
57048;BME280;42934;54.294;18.598;2023-03-14T09:34:04;98229.78;;;11.04;88.77
57048;BME280;42934;54.294;18.598;2023-03-14T09:36:34;98239.16;;;10.96;89.59
57048;BME280;42934;54.294;18.598;2023-03-14T09:39:06;98235.88;;;11.05;88.87
57048;BME280;42934;54.294;18.598;2023-03-14T09:41:41;98221.97;;;11.16;88.25
57048;BME280;42934;54.294;18.598;2023-03-14T09:44:14;98223.03;;;11.13;88.50
57048;BME280;42934;54.294;18.598;2023-03-14T09:46:47;98234.44;;;11.01;88.92
57048;BME280;42934;54.294;18.598;2023-03-14T09:49:21;98222.59;;;10.95;89.35
57048;BME280;42934;54.294;18.598;2023-03-14T09:51:54;98229.13;;;10.89;89.32
57048;BME280;42934;54.294;18.598;2023-03-14T09:54:30;98235.03;;;11.04;89.01
57048;BME280;42934;54.294;18.598;2023-03-14T09:57:03;98235.41;;;11.11;88.01
57048;BME280;42934;54.294;18.598;2023-03-14T09:59:35;98244.81;;;11.02;88.37
57048;BME280;42934;54.294;18.598;2023-03-14T10:02:16;98244.56;;;10.81;89.13
57048;BME280;42934;54.294;18.598;2023-03-14T10:04:46;98239.63;;;10.89;88.55
57048;BME280;42934;54.294;18.598;2023-03-14T10:07:18;98235.34;;;11.00;87.59
57048;BME280;42934;54.294;18.598;2023-03-14T10:09:50;98238.34;;;10.95;88.34
57048;BME280;42934;54.294;18.598;2023-03-14T10:12:31;98233.63;;;10.87;88.22
57048;BME280;42934;54.294;18.598;2023-03-14T10:15:04;98233.31;;;10.92;88.37
57048;BME280;42934;54.294;18.598;2023-03-14T10:17:40;98232.41;;;10.80;87.71
57048;BME280;42934;54.294;18.598;2023-03-14T10:20:27;98232.47;;;10.91;87.75
57048;BME280;42934;54.294;18.598;2023-03-14T10:23:01;98240.59;;;10.76;87.68
57048;BME280;42934;54.294;18.598;2023-03-14T10:25:33;98235.97;;;10.79;87.42
57048;BME280;42934;54.294;18.598;2023-03-14T10:28:04;98244.19;;;10.75;87.95
57048;BME280;42934;54.294;18.598;2023-03-14T10:30:39;98237.66;;;10.80;87.52
57048;BME280;42934;54.294;18.598;2023-03-14T10:33:20;98251.72;;;10.79;87.88
57048;BME280;42934;54.294;18.598;2023-03-14T10:35:54;98245.25;;;10.96;87.33
57048;BME280;42934;54.294;18.598;2023-03-14T10:38:26;98254.97;;;11.07;86.82
57048;BME280;42934;54.294;18.598;2023-03-14T10:40:56;98250.66;;;11.06;86.86
57048;BME280;42934;54.294;18.598;2023-03-14T10:43:32;98241.78;;;10.96;87.78
57048;BME280;42934;54.294;18.598;2023-03-14T10:46:08;98247.56;;;11.01;87.58
57048;BME280;42934;54.294;18.598;2023-03-14T10:48:58;98252.81;;;11.01;87.15
57048;BME280;42934;54.294;18.598;2023-03-14T10:51:29;98256.72;;;10.95;87.80
57048;BME280;42934;54.294;18.598;2023-03-14T10:54:00;98253.13;;;10.96;87.95
57048;BME280;42934;54.294;18.598;2023-03-14T10:56:35;98246.75;;;11.11;86.96
57048;BME280;42934;54.294;18.598;2023-03-14T10:59:11;98240.38;;;11.03;87.82
57048;BME280;42934;54.294;18.598;2023-03-14T11:01:44;98230.38;;;11.08;87.02
57048;BME280;42934;54.294;18.598;2023-03-14T11:04:22;98225.38;;;11.05;87.15
57048;BME280;42934;54.294;18.598;2023-03-14T11:06:59;98218.97;;;11.09;86.67
57048;BME280;42934;54.294;18.598;2023-03-14T11:09:36;98220.50;;;11.11;86.25
57048;BME280;42934;54.294;18.598;2023-03-14T11:12:26;98213.25;;;11.26;86.05
57048;BME280;42934;54.294;18.598;2023-03-14T11:15:04;98207.41;;;11.23;85.86
57048;BME280;42934;54.294;18.598;2023-03-14T11:17:41;98209.88;;;11.13;86.24
57048;BME280;42934;54.294;18.598;2023-03-14T11:20:26;98201.88;;;11.14;86.41
57048;BME280;42934;54.294;18.598;2023-03-14T11:23:04;98202.06;;;11.24;86.33
57048;BME280;42934;54.294;18.598;2023-03-14T11:25:42;98203.63;;;11.27;85.78
57048;BME280;42934;54.294;18.598;2023-03-14T11:28:18;98201.22;;;11.24;86.41
57048;BME280;42934;54.294;18.598;2023-03-14T11:30:54;98212.56;;;11.24;85.88
57048;BME280;42934;54.294;18.598;2023-03-14T11:33:27;98215.22;;;11.35;85.66
57048;BME280;42934;54.294;18.598;2023-03-14T11:36:03;98205.78;;;11.33;85.76
57048;BME280;42934;54.294;18.598;2023-03-14T11:38:38;98215.78;;;11.28;86.07
57048;BME280;42934;54.294;18.598;2023-03-14T11:41:14;98205.50;;;11.25;86.26
57048;BME280;42934;54.294;18.598;2023-03-14T11:43:54;98204.50;;;11.39;85.87
57048;BME280;42934;54.294;18.598;2023-03-14T11:46:29;98200.94;;;11.51;85.43
57048;BME280;42934;54.294;18.598;2023-03-14T11:49:05;98184.94;;;11.54;85.45
57048;BME280;42934;54.294;18.598;2023-03-14T11:51:37;98197.84;;;11.57;85.38
57048;BME280;42934;54.294;18.598;2023-03-14T11:54:14;98192.84;;;11.65;84.93
57048;BME280;42934;54.294;18.598;2023-03-14T11:56:47;98172.91;;;11.74;84.92
57048;BME280;42934;54.294;18.598;2023-03-14T11:59:23;98175.66;;;11.83;84.39
57048;BME280;42934;54.294;18.598;2023-03-14T12:01:58;98180.47;;;12.12;83.53
57048;BME280;42934;54.294;18.598;2023-03-14T12:04:43;98186.41;;;12.14;83.24
57048;BME280;42934;54.294;18.598;2023-03-14T12:07:20;98191.22;;;12.09;82.91
57048;BME280;42934;54.294;18.598;2023-03-14T12:09:52;98193.38;;;12.04;82.14
57048;BME280;42934;54.294;18.598;2023-03-14T12:12:25;98202.09;;;12.27;81.22
57048;BME280;42934;54.294;18.598;2023-03-14T12:14:57;98193.72;;;12.33;81.19
57048;BME280;42934;54.294;18.598;2023-03-14T12:17:35;98190.84;;;12.36;79.90
57048;BME280;42934;54.294;18.598;2023-03-14T12:20:12;98182.47;;;12.42;79.61
57048;BME280;42934;54.294;18.598;2023-03-14T12:22:47;98185.81;;;12.33;80.00
57048;BME280;42934;54.294;18.598;2023-03-14T12:25:19;98199.56;;;12.14;79.52
57048;BME280;42934;54.294;18.598;2023-03-14T12:28:20;98202.94;;;12.16;79.32
57048;BME280;42934;54.294;18.598;2023-03-14T12:30:49;98199.47;;;12.27;79.57
57048;BME280;42934;54.294;18.598;2023-03-14T12:33:27;98202.19;;;12.14;79.24
57048;BME280;42934;54.294;18.598;2023-03-14T12:36:02;98196.00;;;12.04;80.01
57048;BME280;42934;54.294;18.598;2023-03-14T12:38:52;98195.28;;;12.13;78.54
57048;BME280;42934;54.294;18.598;2023-03-14T12:41:29;98184.50;;;12.39;78.83
57048;BME280;42934;54.294;18.598;2023-03-14T12:44:39;98190.84;;;12.36;78.82
57048;BME280;42934;54.294;18.598;2023-03-14T12:50:33;98186.56;;;12.67;76.86
57048;BME280;42934;54.294;18.598;2023-03-14T12:56:26;98177.38;;;12.94;75.32
57048;BME280;42934;54.294;18.598;2023-03-14T12:59:12;98180.94;;;12.72;75.69
57048;BME280;42934;54.294;18.598;2023-03-14T13:01:52;98187.34;;;12.90;76.26
57048;BME280;42934;54.294;18.598;2023-03-14T13:04:28;98191.75;;;13.01;74.76
57048;BME280;42934;54.294;18.598;2023-03-14T13:07:13;98178.81;;;12.98;74.80
57048;BME280;42934;54.294;18.598;2023-03-14T13:10:05;98177.75;;;13.01;74.60
57048;BME280;42934;54.294;18.598;2023-03-14T13:12:51;98180.50;;;12.99;74.51
57048;BME280;42934;54.294;18.598;2023-03-14T13:15:27;98172.25;;;12.92;73.69
57048;BME280;42934;54.294;18.598;2023-03-14T13:18:01;98173.16;;;13.03;73.38
57048;BME280;42934;54.294;18.598;2023-03-14T13:20:34;98174.13;;;13.02;73.99
57048;BME280;42934;54.294;18.598;2023-03-14T13:23:17;98163.28;;;12.95;74.52
57048;BME280;42934;54.294;18.598;2023-03-14T13:25:47;98159.31;;;13.01;74.27
57048;BME280;42934;54.294;18.598;2023-03-14T13:28:17;98162.50;;;13.04;74.06
57048;BME280;42934;54.294;18.598;2023-03-14T13:30:48;98162.25;;;13.07;74.54
57048;BME280;42934;54.294;18.598;2023-03-14T13:33:21;98161.25;;;13.19;73.72
57048;BME280;42934;54.294;18.598;2023-03-14T13:35:55;98164.97;;;13.17;72.65
57048;BME280;42934;54.294;18.598;2023-03-14T13:38:27;98151.66;;;13.18;71.99